Time;durP1;ratioP1;P1;durP2;ratioP2;P2;SDS_P1;SDS_P2;PMS_P1;PMS_P2;Temp;Humidity;BMP_temperature;BMP_pressure;BME280_temperature;BME280_humidity;BME280_pressure;Samples;Min_cycle;Max_cycle;Signal;HPM_P1;HPM_P2
2023/06/24 00:01:31;;;;;;;9.57;4.83;;;18.70;18.20;;;;;;5027056;28;20519;-68
2023/06/24 00:03:58;;;;;;;8.43;5.20;;;18.70;18.40;;;;;;5027576;28;20458;-68
2023/06/24 00:06:25;;;;;;;9.60;6.00;;;18.70;18.40;;;;;;5024191;28;21211;-68
2023/06/24 00:09:00;;;;;;;8.73;6.10;;;18.70;18.20;;;;;;5022191;28;20481;-68
2023/06/24 00:11:28;;;;;;;8.23;5.73;;;18.70;18.00;;;;;;5026425;28;20979;-68
2023/06/24 00:13:55;;;;;;;9.90;6.10;;;18.70;18.10;;;;;;5028911;28;20475;-68
2023/06/24 00:16:27;;;;;;;8.37;5.50;;;18.70;18.00;;;;;;5025103;28;20462;-68
2023/06/24 00:18:55;;;;;;;9.50;5.67;;;18.70;18.20;;;;;;5025255;28;21005;-68
2023/06/24 00:21:22;;;;;;;8.90;5.43;;;18.70;18.60;;;;;;5021372;28;20899;-68
2023/06/24 00:23:49;;;;;;;8.70;4.83;;;18.70;18.90;;;;;;5021369;28;20863;-68
2023/06/24 00:26:17;;;;;;;8.67;5.80;;;18.70;19.30;;;;;;5024574;28;20543;-68
2023/06/24 00:28:45;;;;;;;8.53;5.60;;;18.70;19.60;;;;;;5024963;28;20986;-68
2023/06/24 00:31:12;;;;;;;11.73;5.10;;;18.70;19.80;;;;;;5024562;28;20476;-68
2023/06/24 00:33:39;;;;;;;8.50;5.70;;;18.70;20.00;;;;;;5024126;28;20924;-68
2023/06/24 00:36:08;;;;;;;8.70;5.23;;;18.70;20.80;;;;;;5027184;28;20474;-68
2023/06/24 00:38:35;;;;;;;9.57;5.47;;;18.70;21.00;;;;;;5022385;28;20487;-68
2023/06/24 00:41:02;;;;;;;9.70;5.33;;;18.70;21.40;;;;;;5025639;28;20483;-68
2023/06/24 00:43:30;;;;;;;8.53;5.20;;;18.70;22.00;;;;;;5025902;28;20872;-68
2023/06/24 00:45:58;;;;;;;8.03;5.40;;;18.70;22.30;;;;;;5026955;28;20545;-68
2023/06/24 00:48:25;;;;;;;10.17;6.77;;;18.70;22.60;;;;;;5026392;28;20458;-68
2023/06/24 00:50:52;;;;;;;8.70;5.90;;;18.70;23.40;;;;;;5030052;28;20471;-68
2023/06/24 00:53:24;;;;;;;10.70;6.03;;;18.70;25.50;;;;;;5020456;28;20490;-68
2023/06/24 00:55:52;;;;;;;11.30;5.43;;;18.60;27.10;;;;;;5022652;28;21751;-68
2023/06/24 00:58:20;;;;;;;9.23;5.53;;;18.50;27.60;;;;;;5021295;28;20482;-68
2023/06/24 01:00:56;;;;;;;12.63;5.43;;;18.50;27.90;;;;;;5027640;28;20827;-69
2023/06/24 01:03:25;;;;;;;8.80;5.90;;;18.40;28.00;;;;;;5027652;28;20854;-69
2023/06/24 01:05:52;;;;;;;8.20;5.60;;;18.40;28.20;;;;;;5017793;28;20474;-68
2023/06/24 01:08:22;;;;;;;10.07;5.53;;;18.30;28.20;;;;;;5019167;28;20525;-68
2023/06/24 01:10:49;;;;;;;8.60;5.70;;;18.30;29.10;;;;;;5025008;28;21440;-68
2023/06/24 01:13:17;;;;;;;10.57;5.90;;;18.30;28.50;;;;;;5024348;28;20498;-68
2023/06/24 01:15:43;;;;;;;9.70;6.60;;;18.30;28.60;;;;;;5025732;28;20467;-68
2023/06/24 01:18:20;;;;;;;7.77;5.27;;;18.30;28.80;;;;;;5027177;28;20474;-68
2023/06/24 01:20:55;;;;;;;9.43;6.63;;;18.20;29.50;;;;;;5023138;28;20819;-68
2023/06/24 01:23:51;;;;;;;9.20;6.13;;;18.20;29.60;;;;;;5019552;28;20483;-68
2023/06/24 01:26:53;;;;;;;9.77;7.10;;;18.20;29.60;;;;;;5024737;28;21006;-68
2023/06/24 01:29:46;;;;;;;10.20;7.20;;;18.20;30.00;;;;;;5021845;28;20466;-68
2023/06/24 01:32:19;;;;;;;10.50;7.40;;;18.20;30.20;;;;;;5027126;28;21113;-69
2023/06/24 01:34:52;;;;;;;13.03;7.97;;;18.10;30.70;;;;;;5021911;28;20470;-68
2023/06/24 01:37:22;;;;;;;13.77;8.50;;;18.10;31.50;;;;;;5022221;28;20486;-68
2023/06/24 01:40:06;;;;;;;12.03;8.60;;;18.00;32.10;;;;;;5020086;28;20468;-68
2023/06/24 01:42:36;;;;;;;11.63;8.20;;;18.00;31.90;;;;;;5024357;28;20486;-69
2023/06/24 01:45:04;;;;;;;10.80;7.70;;;18.00;32.00;;;;;;5019401;28;20468;-69
2023/06/24 01:47:32;;;;;;;11.57;7.53;;;18.00;31.90;;;;;;5022477;28;20466;-68
2023/06/24 01:50:02;;;;;;;12.03;7.57;;;18.00;31.70;;;;;;5021687;28;20459;-68
2023/06/24 01:52:31;;;;;;;11.50;7.30;;;18.10;31.10;;;;;;5025671;28;21216;-68
2023/06/24 01:54:59;;;;;;;11.73;8.30;;;18.10;30.50;;;;;;5023103;28;20470;-68
2023/06/24 01:57:28;;;;;;;10.57;5.90;;;18.20;30.00;;;;;;5022975;28;20486;-68
2023/06/24 01:59:56;;;;;;;9.20;7.07;;;18.20;29.70;;;;;;5023239;28;20835;-68
2023/06/24 02:02:25;;;;;;;11.13;7.50;;;18.20;29.60;;;;;;5020997;28;20517;-68
2023/06/24 02:04:55;;;;;;;12.30;6.40;;;18.30;29.70;;;;;;5022839;28;20477;-69
2023/06/24 02:07:23;;;;;;;11.90;7.07;;;18.30;29.80;;;;;;5020377;28;20469;-68
2023/06/24 02:09:52;;;;;;;11.60;7.40;;;18.30;29.70;;;;;;5028751;28;20454;-68
2023/06/24 02:12:19;;;;;;;9.87;7.30;;;18.30;29.60;;;;;;5023139;28;20482;-68
2023/06/24 02:14:48;;;;;;;11.67;7.77;;;18.20;30.20;;;;;;5028716;28;20463;-68
2023/06/24 02:17:15;;;;;;;16.13;9.67;;;18.20;30.00;;;;;;5018811;28;20467;-68
2023/06/24 02:19:43;;;;;;;12.20;6.97;;;18.20;30.10;;;;;;5021639;28;20470;-68
2023/06/24 02:22:12;;;;;;;14.33;6.73;;;18.20;30.00;;;;;;5022507;28;20799;-68
2023/06/24 02:24:41;;;;;;;12.63;8.40;;;18.20;29.60;;;;;;5024145;28;20474;-68
2023/06/24 02:27:08;;;;;;;9.67;7.23;;;18.10;29.30;;;;;;5025329;28;20995;-68
2023/06/24 02:29:37;;;;;;;12.13;7.57;;;18.00;29.40;;;;;;5022607;28;20463;-68
2023/06/24 02:32:05;;;;;;;10.17;6.90;;;17.90;29.70;;;;;;5017883;28;20501;-68
2023/06/24 02:34:32;;;;;;;12.60;7.20;;;17.90;28.80;;;;;;5024390;28;20490;-68
2023/06/24 02:36:59;;;;;;;11.20;7.30;;;17.90;28.50;;;;;;5022957;28;20469;-68
2023/06/24 02:39:27;;;;;;;11.50;7.20;;;17.90;28.00;;;;;;5021027;28;20480;-68
2023/06/24 02:41:54;;;;;;;10.13;7.47;;;18.00;27.60;;;;;;5022699;28;20494;-68
2023/06/24 02:44:21;;;;;;;11.77;7.37;;;18.00;27.60;;;;;;5024912;28;20463;-68
2023/06/24 02:46:49;;;;;;;11.53;7.67;;;18.00;28.10;;;;;;5022027;28;20848;-68
2023/06/24 02:49:17;;;;;;;11.93;7.90;;;18.00;28.10;;;;;;5023838;28;20472;-68
2023/06/24 02:51:45;;;;;;;10.57;7.40;;;18.00;28.00;;;;;;5027164;28;20463;-68
2023/06/24 02:54:12;;;;;;;14.00;8.10;;;18.10;28.00;;;;;;5016231;28;20489;-68
2023/06/24 02:56:43;;;;;;;10.90;7.10;;;18.10;27.80;;;;;;5023793;28;20567;-68
2023/06/24 02:59:10;;;;;;;10.60;7.20;;;18.10;27.90;;;;;;5024055;28;20482;-68
2023/06/24 03:01:39;;;;;;;12.33;8.33;;;18.10;27.80;;;;;;5025757;28;21173;-69
2023/06/24 03:04:06;;;;;;;13.33;8.43;;;18.10;27.50;;;;;;5020664;28;20873;-68
2023/06/24 03:06:36;;;;;;;13.53;8.27;;;18.10;26.80;;;;;;5023564;28;20470;-68
2023/06/24 03:09:03;;;;;;;13.43;7.77;;;18.10;26.60;;;;;;5021599;28;20959;-68
2023/06/24 03:11:30;;;;;;;10.40;7.33;;;18.00;26.70;;;;;;5020958;28;20463;-68
2023/06/24 03:13:58;;;;;;;11.70;8.30;;;18.00;26.50;;;;;;5023476;28;20490;-68
2023/06/24 03:16:25;;;;;;;10.33;6.97;;;18.00;26.50;;;;;;5025888;28;20458;-69
2023/06/24 03:18:52;;;;;;;11.57;7.23;;;18.00;25.90;;;;;;5025332;28;20888;-68
2023/06/24 03:21:19;;;;;;;11.50;7.60;;;18.00;24.80;;;;;;5023207;28;20463;-68
2023/06/24 03:23:45;;;;;;;9.30;6.73;;;17.90;24.50;;;;;;5021385;28;20968;-68
2023/06/24 03:26:12;;;;;;;14.20;7.27;;;17.90;24.60;;;;;;5029185;28;21265;-68
2023/06/24 03:28:39;;;;;;;10.27;5.90;;;17.80;24.90;;;;;;5030380;28;20466;-68
2023/06/24 03:31:07;;;;;;;9.73;6.50;;;17.90;24.40;;;;;;5026211;28;20510;-68
2023/06/24 03:33:34;;;;;;;7.80;5.07;;;17.80;23.80;;;;;;5025890;28;20501;-68
2023/06/24 03:36:00;;;;;;;9.17;5.77;;;17.80;23.20;;;;;;5028700;28;20462;-68
2023/06/24 03:38:27;;;;;;;9.33;5.17;;;17.70;23.10;;;;;;5028657;28;20482;-68
2023/06/24 03:40:54;;;;;;;8.20;5.03;;;17.70;23.10;;;;;;5025759;28;20469;-68
2023/06/24 03:43:21;;;;;;;8.90;5.07;;;17.70;22.90;;;;;;5028755;28;20892;-68
2023/06/24 03:45:48;;;;;;;8.07;5.17;;;17.60;22.70;;;;;;5027886;28;20474;-68
2023/06/24 03:48:16;;;;;;;11.07;6.07;;;17.60;22.70;;;;;;5026761;28;20490;-68
2023/06/24 03:50:42;;;;;;;9.93;6.00;;;17.60;22.80;;;;;;5024126;28;20967;-68
2023/06/24 03:53:09;;;;;;;10.67;5.90;;;17.60;22.80;;;;;;5026646;28;20485;-68
2023/06/24 03:55:36;;;;;;;8.70;5.67;;;17.60;23.00;;;;;;5026750;28;20474;-68
2023/06/24 03:58:02;;;;;;;8.33;5.47;;;17.60;23.10;;;;;;5023424;28;20602;-68
2023/06/24 04:00:29;;;;;;;10.60;5.80;;;17.60;23.20;;;;;;5028918;28;20486;-68
2023/06/24 04:02:56;;;;;;;8.00;5.53;;;17.60;23.30;;;;;;5023890;28;20486;-68
2023/06/24 04:05:25;;;;;;;8.73;5.37;;;17.60;23.30;;;;;;5026399;28;20466;-68
2023/06/24 04:07:52;;;;;;;8.23;5.20;;;17.60;23.30;;;;;;5026152;28;20478;-68
2023/06/24 04:10:19;;;;;;;8.60;5.10;;;17.70;22.90;;;;;;5022077;28;20565;-68
2023/06/24 04:12:45;;;;;;;10.02;5.68;;;17.70;22.70;;;;;;5023393;28;20453;-69
2023/06/24 04:15:12;;;;;;;11.80;5.10;;;17.70;23.30;;;;;;5026564;28;20212;-68
2023/06/24 04:17:39;;;;;;;8.70;4.80;;;17.90;22.30;;;;;;5020310;28;21020;-68
2023/06/24 04:20:08;;;;;;;8.47;4.90;;;18.00;22.20;;;;;;5022028;28;20490;-68
2023/06/24 04:22:36;;;;;;;8.27;5.40;;;18.10;22.40;;;;;;5025645;28;20580;-69
2023/06/24 04:25:05;;;;;;;12.67;5.33;;;18.20;22.50;;;;;;5024915;28;20865;-68
2023/06/24 04:27:32;;;;;;;8.30;5.63;;;18.40;23.00;;;;;;5021882;28;20490;-69
2023/06/24 04:29:59;;;;;;;7.67;5.20;;;18.40;23.20;;;;;;5027204;28;20464;-69
2023/06/24 04:32:25;;;;;;;8.73;5.10;;;18.50;23.20;;;;;;5025864;28;21286;-69
2023/06/24 04:34:52;;;;;;;9.03;5.10;;;18.70;22.80;;;;;;5024433;28;20471;-68
2023/06/24 04:37:19;;;;;;;7.30;4.50;;;19.70;21.90;;;;;;5031033;28;20485;-68
2023/06/24 04:39:48;;;;;;;8.10;4.80;;;21.00;18.10;;;;;;5030301;28;20483;-68
2023/06/24 04:42:15;;;;;;;8.63;4.80;;;22.40;14.90;;;;;;5025299;28;21013;-68
2023/06/24 04:44:42;;;;;;;6.77;4.50;;;23.30;11.30;;;;;;5021954;28;20554;-69
2023/06/24 04:47:09;;;;;;;9.33;5.10;;;24.10;9.70;;;;;;5034001;28;20814;-69
2023/06/24 04:49:35;;;;;;;6.60;4.10;;;25.00;7.90;;;;;;5025243;28;20466;-69
2023/06/24 04:52:02;;;;;;;6.60;4.40;;;25.80;5.40;;;;;;5024089;28;20493;-69
2023/06/24 04:54:29;;;;;;;7.90;4.77;;;26.30;4.40;;;;;;5026125;28;20467;-68
2023/06/24 04:56:57;;;;;;;8.53;4.20;;;26.80;3.30;;;;;;5024096;28;20822;-69
2023/06/24 04:59:24;;;;;;;7.40;4.90;;;26.80;3.30;;;;;;5026660;28;20475;-69
2023/06/24 05:01:50;;;;;;;8.60;4.70;;;26.50;3.10;;;;;;5022421;28;20491;-69
2023/06/24 05:04:17;;;;;;;6.90;4.50;;;26.80;2.60;;;;;;5024847;28;20975;-69
2023/06/24 05:06:44;;;;;;;8.23;4.10;;;27.30;2.40;;;;;;5023283;28;20467;-69
2023/06/24 05:09:13;;;;;;;6.10;3.83;;;28.10;1.40;;;;;;5022845;28;20490;-69
2023/06/24 05:11:40;;;;;;;7.67;4.43;;;28.70;1.00;;;;;;5026028;28;20467;-69
2023/06/24 05:14:08;;;;;;;8.73;4.43;;;29.10;1.00;;;;;;5022656;28;21013;-69
2023/06/24 05:16:34;;;;;;;7.73;4.33;;;29.30;1.00;;;;;;5023506;28;20466;-69
2023/06/24 05:19:01;;;;;;;7.67;3.77;;;28.50;1.00;;;;;;5020823;28;20845;-69
2023/06/24 05:21:28;;;;;;;7.30;4.50;;;28.30;1.00;;;;;;5025296;28;20475;-69
2023/06/24 05:23:55;;;;;;;7.40;4.60;;;28.30;1.00;;;;;;5024550;28;20870;-69
2023/06/24 05:26:21;;;;;;;7.87;4.87;;;27.70;1.00;;;;;;5021843;28;20467;-69
2023/06/24 05:28:48;;;;;;;7.10;4.90;;;27.80;1.00;;;;;;5024384;28;20463;-69
2023/06/24 05:31:16;;;;;;;6.93;4.37;;;27.70;1.00;;;;;;5023739;28;21544;-69
2023/06/24 05:33:43;;;;;;;7.80;4.60;;;27.50;1.70;;;;;;5022731;28;21006;-69
2023/06/24 05:36:09;;;;;;;6.70;4.33;;;26.90;2.30;;;;;;5019089;28;20455;-69
2023/06/24 05:38:36;;;;;;;7.67;4.67;;;27.40;3.20;;;;;;5023982;28;20978;-69
2023/06/24 05:41:03;;;;;;;7.60;5.70;;;29.00;1.10;;;;;;5017071;28;20466;-69
2023/06/24 05:43:30;;;;;;;8.70;5.63;;;30.80;1.00;;;;;;5024034;28;20489;-69
2023/06/24 05:45:56;;;;;;;6.90;4.93;;;32.50;1.00;;;;;;5023112;28;20478;-69
2023/06/24 05:48:24;;;;;;;7.93;6.03;;;33.80;1.00;;;;;;5023857;28;20492;-70
2023/06/24 05:50:51;;;;;;;8.00;4.80;;;34.90;1.00;;;;;;5025203;28;20473;-70
2023/06/24 05:53:18;;;;;;;7.27;5.60;;;35.90;1.00;;;;;;5022120;28;20526;-69
2023/06/24 05:55:45;;;;;;;9.90;5.77;;;36.90;1.00;;;;;;5024174;28;20525;-69
2023/06/24 05:58:11;;;;;;;7.77;6.17;;;37.70;1.00;;;;;;5021211;28;20468;-70
2023/06/24 06:00:38;;;;;;;6.80;4.80;;;38.30;1.00;;;;;;5022192;28;20466;-70
2023/06/24 06:03:05;;;;;;;7.70;5.30;;;38.60;1.00;;;;;;5025786;28;20510;-70
2023/06/24 06:05:33;;;;;;;6.90;4.83;;;39.00;1.00;;;;;;5024474;28;20560;-70
2023/06/24 06:08:00;;;;;;;6.90;5.20;;;39.50;1.00;;;;;;5020719;28;20832;-70
2023/06/24 06:10:26;;;;;;;7.10;5.20;;;40.10;1.00;;;;;;5021386;28;20467;-71
2023/06/24 06:12:53;;;;;;;7.00;5.43;;;40.80;1.00;;;;;;5020909;28;22679;-71
2023/06/24 06:15:20;;;;;;;8.27;4.73;;;41.30;1.00;;;;;;5022342;28;20499;-70
2023/06/24 06:17:47;;;;;;;7.60;5.23;;;42.00;1.00;;;;;;5023003;28;20469;-70
2023/06/24 06:20:14;;;;;;;6.40;4.77;;;42.50;1.00;;;;;;5019777;28;20494;-71
2023/06/24 06:22:42;;;;;;;6.03;4.47;;;43.10;1.00;;;;;;5018986;28;20964;-71
2023/06/24 06:25:09;;;;;;;6.60;5.20;;;43.60;1.00;;;;;;5023295;28;20470;-71
2023/06/24 06:27:36;;;;;;;6.93;4.80;;;44.10;1.00;;;;;;5024281;28;21000;-71
2023/06/24 06:30:04;;;;;;;6.40;4.60;;;44.30;1.00;;;;;;5021198;28;20459;-71
2023/06/24 06:32:30;;;;;;;8.50;4.93;;;44.50;1.00;;;;;;5022380;28;20488;-71
2023/06/24 06:34:57;;;;;;;6.77;4.60;;;44.90;1.00;;;;;;5020153;28;20994;-71
2023/06/24 06:37:24;;;;;;;5.90;4.80;;;45.40;1.00;;;;;;5020694;28;20470;-71
2023/06/24 06:39:52;;;;;;;7.03;4.47;;;45.90;1.00;;;;;;5022407;28;20479;-71
2023/06/24 06:42:19;;;;;;;7.63;4.73;;;46.50;1.00;;;;;;5019467;28;20485;-71
2023/06/24 06:44:45;;;;;;;7.93;4.20;;;47.00;1.00;;;;;;5023822;28;20463;-71
2023/06/24 06:47:12;;;;;;;6.53;4.50;;;47.70;1.00;;;;;;5020225;28;20459;-71
2023/06/24 06:49:39;;;;;;;5.00;3.73;;;48.10;1.00;;;;;;5020626;28;20462;-71
2023/06/24 06:52:07;;;;;;;6.20;3.90;;;48.30;1.00;;;;;;5022523;28;20491;-71
2023/06/24 06:54:33;;;;;;;5.70;4.10;;;48.20;1.00;;;;;;5025003;28;20463;-70
2023/06/24 06:57:03;;;;;;;5.93;4.10;;;48.60;1.00;;;;;;5024598;28;20478;-70
2023/06/24 06:59:30;;;;;;;5.73;4.10;;;49.10;1.00;;;;;;5028853;28;20984;-71
2023/06/24 07:01:56;;;;;;;5.07;3.47;;;49.40;1.00;;;;;;5020803;28;20486;-71
2023/06/24 07:04:23;;;;;;;7.17;4.37;;;49.70;1.00;;;;;;5025244;28;20498;-71
2023/06/24 07:06:50;;;;;;;4.90;3.40;;;50.20;1.00;;;;;;5024061;28;20462;-70
2023/06/24 07:09:17;;;;;;;5.40;3.90;;;50.60;1.00;;;;;;5025524;28;20461;-70
2023/06/24 07:11:44;;;;;;;6.17;3.70;;;50.90;1.00;;;;;;5027623;28;20466;-71
2023/06/24 07:14:12;;;;;;;6.37;3.67;;;51.20;1.00;;;;;;5026703;28;20458;-71
2023/06/24 07:16:39;;;;;;;11.10;4.30;;;51.80;1.00;;;;;;5025099;28;20466;-71
2023/06/24 07:19:07;;;;;;;4.33;3.03;;;52.20;1.00;;;;;;5021381;28;20488;-70
2023/06/24 07:21:34;;;;;;;4.80;3.57;;;52.60;1.00;;;;;;5004952;28;20466;-70
2023/06/24 07:24:00;;;;;;;5.27;3.30;;;52.90;1.00;;;;;;5023968;28;20966;-70
2023/06/24 07:26:28;;;;;;;5.70;3.93;;;52.60;1.00;;;;;;5026971;28;20462;-70
2023/06/24 07:28:58;;;;;;;5.40;3.20;;;51.70;1.00;;;;;;5020823;28;21158;-70
2023/06/24 07:31:26;;;;;;;5.03;3.40;;;51.00;1.00;;;;;;5025028;28;20570;-70
2023/06/24 07:33:53;;;;;;;5.27;3.63;;;50.90;1.00;;;;;;5025533;28;20467;-70
2023/06/24 07:36:20;;;;;;;4.90;3.70;;;50.70;1.00;;;;;;5026587;28;21331;-70
2023/06/24 07:38:46;;;;;;;5.30;4.10;;;50.80;1.00;;;;;;5024461;28;20494;-70
2023/06/24 07:41:13;;;;;;;5.97;3.77;;;50.50;1.00;;;;;;5028315;28;20513;-69
2023/06/24 07:43:40;;;;;;;5.30;3.73;;;50.60;1.00;;;;;;5018002;28;20490;-69
2023/06/24 07:46:07;;;;;;;5.20;3.93;;;51.00;1.00;;;;;;5028058;28;20463;-69
2023/06/24 07:48:35;;;;;;;6.83;3.70;;;51.40;1.00;;;;;;5021930;28;20463;-70
2023/06/24 07:51:01;;;;;;;5.90;3.37;;;52.10;1.00;;;;;;5024666;28;20973;-69
2023/06/24 07:53:28;;;;;;;4.97;3.10;;;52.70;1.00;;;;;;5019285;28;23222;-69
2023/06/24 07:55:55;;;;;;;5.00;3.30;;;53.20;1.00;;;;;;5022353;28;20458;-70
2023/06/24 07:58:21;;;;;;;6.50;3.50;;;53.50;1.00;;;;;;5022400;28;20550;-70
2023/06/24 08:00:48;;;;;;;5.27;3.63;;;53.70;1.00;;;;;;5022424;28;20827;-70
2023/06/24 08:03:15;;;;;;;6.27;4.23;;;53.30;1.00;;;;;;5022275;28;20482;-70
2023/06/24 08:05:43;;;;;;;6.03;3.90;;;53.40;1.00;;;;;;5020898;28;20983;-70
2023/06/24 08:08:10;;;;;;;6.10;3.77;;;53.70;1.00;;;;;;5041507;22;21013;-68
2023/06/24 08:10:37;;;;;;;6.70;3.90;;;54.40;1.00;;;;;;5047206;28;20466;-68
2023/06/24 08:13:03;;;;;;;4.77;3.50;;;54.80;1.00;;;;;;5048081;28;20504;-69
2023/06/24 08:15:30;;;;;;;7.43;3.53;;;55.20;1.00;;;;;;5043511;28;20461;-69
2023/06/24 08:17:57;;;;;;;7.17;3.70;;;55.40;1.00;;;;;;5043235;28;20476;-69
2023/06/24 08:20:24;;;;;;;6.90;3.50;;;55.90;1.00;;;;;;5045012;28;21027;-69
2023/06/24 08:22:52;;;;;;;4.80;3.07;;;56.60;1.00;;;;;;5046754;28;20496;-68
2023/06/24 08:25:19;;;;;;;5.80;4.27;;;57.00;1.00;;;;;;5046247;28;20207;-68
2023/06/24 08:27:46;;;;;;;4.37;3.37;;;55.90;1.00;;;;;;5044077;28;20208;-69
2023/06/24 08:30:14;;;;;;;5.40;4.10;;;55.50;1.00;;;;;;5045444;28;20469;-68
2023/06/24 08:32:41;;;;;;;6.33;4.90;;;52.40;1.00;;;;;;5044331;28;20841;-67
2023/06/24 08:35:08;;;;;;;5.57;3.90;;;47.90;1.00;;;;;;5045242;28;20469;-68
2023/06/24 08:37:35;;;;;;;7.70;5.20;;;44.10;1.00;;;;;;5046810;28;20816;-68
2023/06/24 08:40:05;;;;;;;7.53;5.70;;;41.10;1.00;;;;;;5041742;28;20497;-68
2023/06/24 08:42:34;;;;;;;6.50;5.17;;;39.20;1.00;;;;;;5038690;28;20497;-67
2023/06/24 08:45:01;;;;;;;6.13;4.90;;;38.20;1.00;;;;;;5041899;28;20465;-68
2023/06/24 08:47:29;;;;;;;6.73;4.80;;;40.40;1.00;;;;;;5042649;28;20466;-67
2023/06/24 08:50:03;;;;;;;8.13;5.73;;;40.50;1.00;;;;;;5047737;28;20477;-68
2023/06/24 08:52:34;;;;;;;8.30;5.67;;;38.30;1.00;;;;;;5047398;28;20522;-68
2023/06/24 08:55:05;;;;;;;7.50;5.37;;;38.90;1.00;;;;;;5043669;28;20454;-68
2023/06/24 08:57:31;;;;;;;5.73;4.43;;;41.60;1.00;;;;;;5043647;28;20997;-68
2023/06/24 08:59:58;;;;;;;8.10;5.03;;;42.70;1.00;;;;;;5040196;28;20478;-67
2023/06/24 09:02:25;;;;;;;6.57;4.30;;;40.90;1.00;;;;;;5041560;28;20486;-68
2023/06/24 09:04:52;;;;;;;6.00;4.70;;;38.90;1.00;;;;;;5048175;28;20834;-67
2023/06/24 09:07:27;;;;;;;6.67;5.20;;;37.30;1.00;;;;;;5046110;28;20465;-67
2023/06/24 09:09:54;;;;;;;6.20;5.00;;;35.90;1.00;;;;;;5049061;28;20489;-67
2023/06/24 09:12:22;;;;;;;7.00;4.97;;;34.90;1.00;;;;;;5048246;28;20990;-67
2023/06/24 09:14:50;;;;;;;7.00;4.80;;;35.80;1.00;;;;;;5048429;28;20453;-67
2023/06/24 09:17:17;;;;;;;7.87;4.97;;;38.00;1.00;;;;;;5040885;28;20978;-67
2023/06/24 09:19:44;;;;;;;6.80;4.90;;;37.20;1.00;;;;;;5073086;28;20477;-67
2023/06/24 09:22:16;;;;;;;7.50;4.60;;;37.00;1.00;;;;;;5064537;28;20485;-67
2023/06/24 09:24:44;;;;;;;7.80;5.10;;;36.50;1.00;;;;;;5037810;28;20462;-68
2023/06/24 09:27:13;;;;;;;6.27;4.60;;;36.10;1.00;;;;;;5044357;28;20462;-67
2023/06/24 09:29:42;;;;;;;7.00;5.63;;;35.70;1.00;;;;;;5045914;28;20487;-68
2023/06/24 09:32:10;;;;;;;5.77;3.93;;;35.00;1.00;;;;;;5042774;28;20521;-67
2023/06/24 09:34:36;;;;;;;7.67;5.20;;;34.00;1.00;;;;;;5044672;28;20466;-67
2023/06/24 09:37:03;;;;;;;6.40;4.23;;;33.30;1.00;;;;;;5042405;28;20470;-67
2023/06/24 09:39:37;;;;;;;6.80;4.50;;;32.60;1.00;;;;;;5042115;28;20482;-68
2023/06/24 09:42:06;;;;;;;7.93;5.00;;;32.40;1.00;;;;;;5043159;28;20486;-67
2023/06/24 09:44:33;;;;;;;6.33;4.27;;;32.40;1.00;;;;;;5043885;28;20539;-67
2023/06/24 09:47:01;;;;;;;7.60;5.17;;;32.50;1.00;;;;;;5043963;28;20997;-67
2023/06/24 09:49:29;;;;;;;7.33;5.00;;;32.50;1.00;;;;;;5042961;28;20462;-67
2023/06/24 09:51:57;;;;;;;6.83;5.17;;;31.90;1.00;;;;;;5044001;28;20478;-67
2023/06/24 09:54:28;;;;;;;7.20;5.47;;;31.30;1.00;;;;;;5047008;28;20494;-67
2023/06/24 09:56:55;;;;;;;8.60;5.33;;;30.50;1.00;;;;;;5044835;28;20513;-68
2023/06/24 09:59:24;;;;;;;7.53;5.10;;;30.00;1.00;;;;;;5041384;28;20966;-68
2023/06/24 10:01:53;;;;;;;8.70;5.87;;;29.60;1.00;;;;;;5047204;28;20573;-67
2023/06/24 10:04:22;;;;;;;7.63;5.57;;;29.00;1.00;;;;;;5045722;28;20462;-67
2023/06/24 10:06:50;;;;;;;6.70;4.70;;;28.60;1.00;;;;;;5039431;28;23392;-67
2023/06/24 10:09:19;;;;;;;6.70;5.03;;;28.30;1.00;;;;;;5048503;28;20877;-67
2023/06/24 10:11:46;;;;;;;7.57;5.23;;;28.30;1.00;;;;;;5047159;28;20466;-68
2023/06/24 10:14:13;;;;;;;8.97;5.40;;;28.10;1.00;;;;;;5043775;28;20458;-70
2023/06/24 10:16:41;;;;;;;9.67;5.40;;;28.00;1.00;;;;;;5042726;28;20458;-67
2023/06/24 10:19:07;;;;;;;9.00;5.60;;;28.00;1.00;;;;;;5041730;28;20939;-67
2023/06/24 10:21:52;;;;;;;8.23;5.40;;;28.10;1.00;;;;;;5042432;28;20478;-67
2023/06/24 10:24:32;;;;;;;8.90;6.43;;;28.30;1.00;;;;;;5042858;28;20462;-69
2023/06/24 10:27:04;;;;;;;7.40;5.30;;;28.30;1.00;;;;;;5043261;28;20480;-67
2023/06/24 10:29:35;;;;;;;8.37;4.73;;;28.00;1.00;;;;;;5046941;28;20458;-67
2023/06/24 10:32:07;;;;;;;8.00;6.30;;;27.80;1.00;;;;;;5048786;28;20972;-68
2023/06/24 10:34:39;;;;;;;8.20;6.13;;;27.60;1.00;;;;;;5049897;28;20840;-67
2023/06/24 10:37:10;;;;;;;6.60;4.43;;;27.40;1.00;;;;;;5048955;28;20453;-66
2023/06/24 10:39:48;;;;;;;8.93;6.03;;;27.20;1.00;;;;;;5043745;28;20473;-68
2023/06/24 10:42:29;;;;;;;8.63;5.77;;;27.30;1.00;;;;;;5049014;28;20513;-67
2023/06/24 10:44:57;;;;;;;7.07;4.57;;;27.30;1.00;;;;;;5045365;28;20465;-68
2023/06/24 10:47:25;;;;;;;7.50;5.40;;;27.10;1.00;;;;;;5043526;28;21353;-67
2023/06/24 10:49:52;;;;;;;11.07;6.07;;;27.00;1.00;;;;;;5044466;28;20989;-67
2023/06/24 10:52:22;;;;;;;8.50;5.50;;;27.00;1.00;;;;;;5046389;28;20855;-68
2023/06/24 10:54:50;;;;;;;7.50;4.90;;;27.00;1.00;;;;;;5046719;28;20477;-66
2023/06/24 10:57:22;;;;;;;6.90;4.80;;;27.00;1.00;;;;;;5047090;28;20453;-67
2023/06/24 10:59:49;;;;;;;6.97;5.00;;;26.90;1.00;;;;;;5044353;28;21670;-68
2023/06/24 11:02:17;;;;;;;6.27;4.47;;;27.00;1.00;;;;;;5049315;28;20513;-68
2023/06/24 11:04:45;;;;;;;9.30;5.60;;;27.00;1.00;;;;;;5049130;28;20900;-67
2023/06/24 11:07:12;;;;;;;9.13;5.77;;;27.20;1.00;;;;;;5048430;28;20481;-67
2023/06/24 11:09:41;;;;;;;6.90;4.73;;;27.30;1.00;;;;;;5049616;28;20851;-67
2023/06/24 11:12:11;;;;;;;12.33;5.40;;;27.20;1.00;;;;;;5050705;28;20535;-66
2023/06/24 11:14:39;;;;;;;7.70;5.07;;;27.20;1.00;;;;;;5045651;28;20482;-69
2023/06/24 11:17:06;;;;;;;7.43;5.20;;;27.20;1.00;;;;;;5042377;28;20809;-67
2023/06/24 11:19:35;;;;;;;7.47;5.30;;;27.00;1.00;;;;;;5046611;28;20469;-67
2023/06/24 11:22:03;;;;;;;7.57;5.33;;;26.90;1.00;;;;;;5046649;28;20485;-68
2023/06/24 11:24:29;;;;;;;8.10;5.40;;;26.80;1.00;;;;;;5049966;28;20497;-67
2023/06/24 11:26:58;;;;;;;7.77;5.53;;;26.60;1.00;;;;;;5051685;28;20460;-67
2023/06/24 11:29:25;;;;;;;6.90;4.70;;;26.70;1.00;;;;;;5046547;28;20454;-68
2023/06/24 11:31:52;;;;;;;7.90;5.77;;;26.60;1.00;;;;;;5046089;28;20955;-68
2023/06/24 11:34:19;;;;;;;7.27;5.50;;;26.50;1.00;;;;;;5048685;28;20458;-68
2023/06/24 11:36:46;;;;;;;7.13;5.17;;;26.40;1.00;;;;;;5049751;28;20473;-66
2023/06/24 11:39:22;;;;;;;8.10;5.23;;;26.20;1.00;;;;;;5047370;28;20469;-66
2023/06/24 11:41:50;;;;;;;7.70;5.67;;;26.20;1.00;;;;;;5051396;28;20489;-67
2023/06/24 11:44:20;;;;;;;7.50;5.40;;;26.20;1.00;;;;;;5050208;28;20473;-66
2023/06/24 11:46:47;;;;;;;7.83;5.73;;;26.10;1.00;;;;;;5045544;28;20535;-67
2023/06/24 11:49:14;;;;;;;8.77;5.30;;;26.20;1.00;;;;;;5049240;28;20458;-67
2023/06/24 11:51:48;;;;;;;7.17;4.73;;;26.10;1.00;;;;;;5049550;28;20519;-67
2023/06/24 11:54:17;;;;;;;6.37;4.50;;;26.00;1.00;;;;;;5049217;28;21067;-67
2023/06/24 11:56:45;;;;;;;7.67;4.70;;;26.00;1.00;;;;;;5047554;28;20465;-67
2023/06/24 11:59:23;;;;;;;8.33;5.53;;;26.00;1.00;;;;;;5049728;28;20462;-67
2023/06/24 12:01:55;;;;;;;8.73;4.40;;;25.90;1.00;;;;;;5046057;28;21067;-67
2023/06/24 12:04:28;;;;;;;8.70;6.77;;;25.90;1.00;;;;;;5046469;28;20824;-67
2023/06/24 12:06:55;;;;;;;7.50;4.57;;;26.00;1.00;;;;;;5044016;28;20831;-68
2023/06/24 12:09:22;;;;;;;6.13;4.10;;;26.00;1.00;;;;;;5048317;28;20470;-67
2023/06/24 12:11:48;;;;;;;7.00;4.30;;;26.00;1.00;;;;;;5049569;28;20482;-66
2023/06/24 12:14:15;;;;;;;5.50;3.27;;;25.80;1.00;;;;;;5047020;28;20470;-67
2023/06/24 12:16:43;;;;;;;5.97;3.47;;;25.70;1.00;;;;;;5047699;28;20462;-67
2023/06/24 12:19:10;;;;;;;6.87;3.73;;;25.80;1.00;;;;;;5046179;28;20458;-67
2023/06/24 12:21:37;;;;;;;6.17;4.00;;;25.70;1.00;;;;;;5046561;28;20521;-67
2023/06/24 12:24:06;;;;;;;6.87;4.57;;;25.70;1.00;;;;;;5063859;28;20513;-67
2023/06/24 12:26:33;;;;;;;8.90;4.17;;;25.60;1.00;;;;;;5070084;28;20462;-67
2023/06/24 12:29:00;;;;;;;10.20;3.93;;;25.50;1.00;;;;;;5053595;28;20450;-68
2023/06/24 12:31:26;;;;;;;5.87;3.47;;;25.50;1.00;;;;;;5049306;28;20494;-68
2023/06/24 12:33:55;;;;;;;6.10;3.07;;;25.60;1.00;;;;;;5045807;28;20461;-67
2023/06/24 12:36:23;;;;;;;6.33;3.27;;;25.60;1.00;;;;;;5048850;28;20458;-67
2023/06/24 12:38:49;;;;;;;5.70;3.70;;;25.60;1.00;;;;;;5043707;28;20454;-67
2023/06/24 12:41:16;;;;;;;5.70;3.40;;;25.60;1.00;;;;;;5047059;28;20478;-68
2023/06/24 12:43:43;;;;;;;6.13;3.23;;;25.50;1.00;;;;;;5046934;28;20517;-67
2023/06/24 12:46:09;;;;;;;6.10;2.83;;;25.60;1.00;;;;;;5045882;28;20465;-66
2023/06/24 12:48:36;;;;;;;5.37;3.33;;;25.60;1.00;;;;;;5047495;28;20828;-67
2023/06/24 12:51:04;;;;;;;6.33;3.30;;;25.60;1.00;;;;;;5047578;28;20454;-68
2023/06/24 12:53:31;;;;;;;5.93;3.30;;;25.60;1.00;;;;;;5047677;28;20572;-67
2023/06/24 12:55:58;;;;;;;6.20;2.90;;;25.50;1.00;;;;;;5047305;28;20466;-67